< Typhoon 199805 1998 Season Typhoon 199807 >
Typhoon 199806 (TODD)
General InformationTrack Information on Google MapsDetailed Wind InformationList of All Images || Disaster Info.ResourceGoogle EarthGE AnimationAtom FeedGeoJSON
Detalied Best Track (Time Zone = UTC)
Year Month Day Hour Lat. Long. Pressure (hPa) Wind (kt) Class Image Chart
1998 9 16 00 20.9 130.8 1000 0 2 Image Chart
1998 9 16 06 21.1 131.7 994 35 3 Image Chart
1998 9 16 12 21.2 132.6 990 50 4 Image Chart
1998 9 16 18 21.6 133.3 980 60 4 Image Chart
1998 9 17 00 22.2 134.2 965 70 5 Image Chart
1998 9 17 06 23.2 134.6 955 75 5 Image Chart
1998 9 17 12 24.7 134.8 955 75 5 Image Chart
1998 9 17 18 26.5 134.3 955 75 5 Image Chart
1998 9 18 00 28.3 133.3 960 70 5 Image Chart
1998 9 18 03 29.2 132.3 965 60 4 Image Chart
1998 9 18 06 29.9 130.8 970 60 4 Image Chart
1998 9 18 09 29.9 130.0 980 55 4 Image Chart
1998 9 18 12 29.9 129.1 985 50 4 Image Chart
1998 9 18 15 29.8 127.9 985 50 4 Image Chart
1998 9 18 18 29.8 126.9 985 50 4 Image Chart
1998 9 19 00 30.0 125.9 985 50 4 Image Chart
1998 9 19 06 30.3 123.5 985 50 4 Image Chart
1998 9 19 12 30.0 122.4 990 45 3 Image Chart
1998 9 19 18 29.8 121.6 992 45 3 Image Chart
1998 9 20 00 29.4 120.9 1000 0 2 Image Chart
1998 9 20 06 29.3 121.0 1002 0 2 Image Chart
Japan Meteorological Agency Best Track Data | Correction Date : 1999-01-11
< Typhoon 199805 1998 Season Typhoon 199807 >

Help